sensor_id;sensor_type;location;lat;lon;timestamp;temperature;humidity
16513;DHT22;8369;48.030;11.598;2022-07-29T00:01:48;21.50;90.50
16513;DHT22;8369;48.030;11.598;2022-07-29T00:04:14;21.50;90.40
16513;DHT22;8369;48.030;11.598;2022-07-29T00:06:40;21.50;90.80
16513;DHT22;8369;48.030;11.598;2022-07-29T00:09:06;21.50;90.60
16513;DHT22;8369;48.030;11.598;2022-07-29T00:11:32;21.50;91.20
16513;DHT22;8369;48.030;11.598;2022-07-29T00:13:58;21.50;91.10
16513;DHT22;8369;48.030;11.598;2022-07-29T00:16:24;21.50;91.40
16513;DHT22;8369;48.030;11.598;2022-07-29T00:18:50;21.50;91.50
16513;DHT22;8369;48.030;11.598;2022-07-29T00:21:16;21.50;91.90
16513;DHT22;8369;48.030;11.598;2022-07-29T00:23:41;21.40;91.90
16513;DHT22;8369;48.030;11.598;2022-07-29T00:26:07;21.40;91.90
16513;DHT22;8369;48.030;11.598;2022-07-29T00:28:33;21.40;92.30
16513;DHT22;8369;48.030;11.598;2022-07-29T00:31:00;21.40;92.20
16513;DHT22;8369;48.030;11.598;2022-07-29T00:33:26;21.40;92.90
16513;DHT22;8369;48.030;11.598;2022-07-29T00:35:51;21.40;92.60
16513;DHT22;8369;48.030;11.598;2022-07-29T00:38:19;21.40;93.40
16513;DHT22;8369;48.030;11.598;2022-07-29T00:40:46;21.40;93.90
16513;DHT22;8369;48.030;11.598;2022-07-29T00:43:13;21.40;93.50
16513;DHT22;8369;48.030;11.598;2022-07-29T00:45:42;21.30;94.00
16513;DHT22;8369;48.030;11.598;2022-07-29T00:48:08;21.30;94.20
16513;DHT22;8369;48.030;11.598;2022-07-29T00:50:36;21.30;94.60
16513;DHT22;8369;48.030;11.598;2022-07-29T00:53:07;21.30;94.60
16513;DHT22;8369;48.030;11.598;2022-07-29T00:55:34;21.30;94.50
16513;DHT22;8369;48.030;11.598;2022-07-29T00:58:00;21.30;94.50
16513;DHT22;8369;48.030;11.598;2022-07-29T01:00:28;21.30;94.20
16513;DHT22;8369;48.030;11.598;2022-07-29T01:02:54;21.20;94.30
16513;DHT22;8369;48.030;11.598;2022-07-29T01:05:24;21.30;94.00
16513;DHT22;8369;48.030;11.598;2022-07-29T01:07:53;21.20;93.80
16513;DHT22;8369;48.030;11.598;2022-07-29T01:10:20;21.20;94.00
16513;DHT22;8369;48.030;11.598;2022-07-29T01:12:49;21.20;93.90
16513;DHT22;8369;48.030;11.598;2022-07-29T01:15:16;21.20;94.20
16513;DHT22;8369;48.030;11.598;2022-07-29T01:26:34;21.10;94.80
16513;DHT22;8369;48.030;11.598;2022-07-29T01:29:55;21.10;95.00
16513;DHT22;8369;48.030;11.598;2022-07-29T01:32:18;21.10;95.20
16513;DHT22;8369;48.030;11.598;2022-07-29T01:35:11;21.10;95.00
16513;DHT22;8369;48.030;11.598;2022-07-29T01:37:48;21.10;95.40
16513;DHT22;8369;48.030;11.598;2022-07-29T01:42:52;21.00;95.40
16513;DHT22;8369;48.030;11.598;2022-07-29T01:45:28;21.00;95.70
16513;DHT22;8369;48.030;11.598;2022-07-29T01:48:10;21.00;95.50
16513;DHT22;8369;48.030;11.598;2022-07-29T01:50:47;20.90;96.20
16513;DHT22;8369;48.030;11.598;2022-07-29T01:53:21;20.80;96.60
16513;DHT22;8369;48.030;11.598;2022-07-29T01:55:48;20.80;96.30
16513;DHT22;8369;48.030;11.598;2022-07-29T01:58:17;20.80;96.50
16513;DHT22;8369;48.030;11.598;2022-07-29T02:00:45;20.80;96.10
16513;DHT22;8369;48.030;11.598;2022-07-29T02:03:13;20.80;96.20
16513;DHT22;8369;48.030;11.598;2022-07-29T02:05:42;20.70;96.30
16513;DHT22;8369;48.030;11.598;2022-07-29T02:08:11;20.70;96.80
16513;DHT22;8369;48.030;11.598;2022-07-29T02:10:40;20.70;96.70
16513;DHT22;8369;48.030;11.598;2022-07-29T02:13:09;20.70;96.90
16513;DHT22;8369;48.030;11.598;2022-07-29T02:15:37;20.70;97.00
16513;DHT22;8369;48.030;11.598;2022-07-29T02:18:09;20.70;97.30
16513;DHT22;8369;48.030;11.598;2022-07-29T02:20:38;20.70;97.30
16513;DHT22;8369;48.030;11.598;2022-07-29T02:23:07;20.70;97.60
16513;DHT22;8369;48.030;11.598;2022-07-29T02:25:36;20.70;98.00
16513;DHT22;8369;48.030;11.598;2022-07-29T02:28:04;20.60;98.10
16513;DHT22;8369;48.030;11.598;2022-07-29T02:30:32;20.60;98.30
16513;DHT22;8369;48.030;11.598;2022-07-29T02:32:58;20.60;98.10
16513;DHT22;8369;48.030;11.598;2022-07-29T02:35:28;20.50;98.30
16513;DHT22;8369;48.030;11.598;2022-07-29T02:37:57;20.50;98.40
16513;DHT22;8369;48.030;11.598;2022-07-29T02:40:43;20.50;98.40
16513;DHT22;8369;48.030;11.598;2022-07-29T02:43:09;20.50;98.60
16513;DHT22;8369;48.030;11.598;2022-07-29T02:45:36;20.40;98.80
16513;DHT22;8369;48.030;11.598;2022-07-29T02:48:10;20.40;98.90
16513;DHT22;8369;48.030;11.598;2022-07-29T02:50:44;20.40;99.10
16513;DHT22;8369;48.030;11.598;2022-07-29T02:53:22;20.40;99.30
16513;DHT22;8369;48.030;11.598;2022-07-29T02:55:58;20.40;99.10
16513;DHT22;8369;48.030;11.598;2022-07-29T02:58:31;20.30;98.80
16513;DHT22;8369;48.030;11.598;2022-07-29T03:01:02;20.30;99.00
16513;DHT22;8369;48.030;11.598;2022-07-29T03:03:33;20.30;99.00
16513;DHT22;8369;48.030;11.598;2022-07-29T03:06:01;20.30;99.30
16513;DHT22;8369;48.030;11.598;2022-07-29T03:08:28;20.30;99.20
16513;DHT22;8369;48.030;11.598;2022-07-29T03:10:55;20.20;99.50
16513;DHT22;8369;48.030;11.598;2022-07-29T03:13:22;20.20;99.60
16513;DHT22;8369;48.030;11.598;2022-07-29T03:15:49;20.20;99.80
16513;DHT22;8369;48.030;11.598;2022-07-29T03:18:15;20.10;99.90
16513;DHT22;8369;48.030;11.598;2022-07-29T03:20:42;20.10;99.90
16513;DHT22;8369;48.030;11.598;2022-07-29T03:23:09;20.10;99.90
16513;DHT22;8369;48.030;11.598;2022-07-29T03:25:35;20.00;99.90
16513;DHT22;8369;48.030;11.598;2022-07-29T03:28:01;20.00;99.90
16513;DHT22;8369;48.030;11.598;2022-07-29T03:30:28;20.00;99.90
16513;DHT22;8369;48.030;11.598;2022-07-29T03:32:56;19.90;99.90
16513;DHT22;8369;48.030;11.598;2022-07-29T03:35:22;19.90;99.90
16513;DHT22;8369;48.030;11.598;2022-07-29T03:37:48;19.80;99.90
16513;DHT22;8369;48.030;11.598;2022-07-29T03:40:25;19.80;99.90
16513;DHT22;8369;48.030;11.598;2022-07-29T03:42:54;19.70;99.90
16513;DHT22;8369;48.030;11.598;2022-07-29T03:45:21;19.70;99.90
16513;DHT22;8369;48.030;11.598;2022-07-29T03:47:51;19.60;99.90
16513;DHT22;8369;48.030;11.598;2022-07-29T03:50:20;19.60;99.90
16513;DHT22;8369;48.030;11.598;2022-07-29T03:52:47;19.50;99.90
16513;DHT22;8369;48.030;11.598;2022-07-29T03:55:14;19.50;99.90
16513;DHT22;8369;48.030;11.598;2022-07-29T03:57:41;19.50;99.90
16513;DHT22;8369;48.030;11.598;2022-07-29T04:00:08;19.40;99.90
16513;DHT22;8369;48.030;11.598;2022-07-29T04:02:36;19.40;99.90
16513;DHT22;8369;48.030;11.598;2022-07-29T04:05:04;19.30;99.90
16513;DHT22;8369;48.030;11.598;2022-07-29T04:07:30;19.30;99.90
16513;DHT22;8369;48.030;11.598;2022-07-29T04:09:56;19.30;99.90
16513;DHT22;8369;48.030;11.598;2022-07-29T04:12:22;19.30;99.90
16513;DHT22;8369;48.030;11.598;2022-07-29T04:14:48;19.30;99.90
16513;DHT22;8369;48.030;11.598;2022-07-29T04:17:15;19.30;99.90
16513;DHT22;8369;48.030;11.598;2022-07-29T04:19:42;19.20;99.90
16513;DHT22;8369;48.030;11.598;2022-07-29T04:22:08;19.20;99.90
16513;DHT22;8369;48.030;11.598;2022-07-29T04:24:34;19.20;99.90
16513;DHT22;8369;48.030;11.598;2022-07-29T04:27:01;19.20;99.90
16513;DHT22;8369;48.030;11.598;2022-07-29T04:29:28;19.20;99.90
16513;DHT22;8369;48.030;11.598;2022-07-29T04:31:54;19.20;99.90
16513;DHT22;8369;48.030;11.598;2022-07-29T04:34:21;19.20;99.90
16513;DHT22;8369;48.030;11.598;2022-07-29T04:36:48;19.20;99.90
16513;DHT22;8369;48.030;11.598;2022-07-29T04:39:15;19.20;99.90
16513;DHT22;8369;48.030;11.598;2022-07-29T04:41:41;19.20;99.90
16513;DHT22;8369;48.030;11.598;2022-07-29T04:44:08;19.30;99.90
16513;DHT22;8369;48.030;11.598;2022-07-29T04:46:36;19.30;99.90
16513;DHT22;8369;48.030;11.598;2022-07-29T04:49:03;19.30;99.90
16513;DHT22;8369;48.030;11.598;2022-07-29T04:51:29;19.30;99.90
16513;DHT22;8369;48.030;11.598;2022-07-29T04:53:56;19.40;99.90
16513;DHT22;8369;48.030;11.598;2022-07-29T04:56:23;19.40;99.90
16513;DHT22;8369;48.030;11.598;2022-07-29T04:58:50;19.50;99.90
16513;DHT22;8369;48.030;11.598;2022-07-29T05:01:16;19.50;99.90
16513;DHT22;8369;48.030;11.598;2022-07-29T05:03:43;19.60;99.90
16513;DHT22;8369;48.030;11.598;2022-07-29T05:06:10;19.70;99.90
16513;DHT22;8369;48.030;11.598;2022-07-29T05:08:36;19.80;99.90
16513;DHT22;8369;48.030;11.598;2022-07-29T05:11:03;19.80;99.90
16513;DHT22;8369;48.030;11.598;2022-07-29T05:13:32;19.90;99.90
16513;DHT22;8369;48.030;11.598;2022-07-29T05:15:59;19.90;99.90
16513;DHT22;8369;48.030;11.598;2022-07-29T05:18:26;19.90;99.90
16513;DHT22;8369;48.030;11.598;2022-07-29T05:20:54;20.00;99.90
16513;DHT22;8369;48.030;11.598;2022-07-29T05:23:21;20.00;99.90
16513;DHT22;8369;48.030;11.598;2022-07-29T05:25:47;20.00;99.90
16513;DHT22;8369;48.030;11.598;2022-07-29T05:28:14;20.00;99.90
16513;DHT22;8369;48.030;11.598;2022-07-29T05:30:41;20.00;99.90
16513;DHT22;8369;48.030;11.598;2022-07-29T05:33:07;20.10;99.90
16513;DHT22;8369;48.030;11.598;2022-07-29T05:35:34;20.10;99.90
16513;DHT22;8369;48.030;11.598;2022-07-29T05:38:01;20.10;99.90
16513;DHT22;8369;48.030;11.598;2022-07-29T05:40:27;20.20;99.90
16513;DHT22;8369;48.030;11.598;2022-07-29T05:42:53;20.30;99.90
16513;DHT22;8369;48.030;11.598;2022-07-29T05:45:20;20.30;99.90
16513;DHT22;8369;48.030;11.598;2022-07-29T05:47:47;20.40;99.90
16513;DHT22;8369;48.030;11.598;2022-07-29T05:50:14;20.50;99.90
16513;DHT22;8369;48.030;11.598;2022-07-29T05:52:41;20.60;99.90
16513;DHT22;8369;48.030;11.598;2022-07-29T05:55:10;20.70;99.10
16513;DHT22;8369;48.030;11.598;2022-07-29T05:57:37;20.70;99.20
16513;DHT22;8369;48.030;11.598;2022-07-29T06:00:03;20.80;99.70
16513;DHT22;8369;48.030;11.598;2022-07-29T06:02:30;20.90;99.00
16513;DHT22;8369;48.030;11.598;2022-07-29T06:04:56;20.90;98.70
16513;DHT22;8369;48.030;11.598;2022-07-29T06:07:22;21.00;98.00
16513;DHT22;8369;48.030;11.598;2022-07-29T06:09:49;21.00;98.10
16513;DHT22;8369;48.030;11.598;2022-07-29T06:12:15;21.10;98.20
16513;DHT22;8369;48.030;11.598;2022-07-29T06:14:41;21.10;97.70
16513;DHT22;8369;48.030;11.598;2022-07-29T06:17:07;21.20;97.60
16513;DHT22;8369;48.030;11.598;2022-07-29T06:19:34;21.30;96.90
16513;DHT22;8369;48.030;11.598;2022-07-29T06:22:03;21.30;96.20
16513;DHT22;8369;48.030;11.598;2022-07-29T06:24:30;21.40;96.40
16513;DHT22;8369;48.030;11.598;2022-07-29T06:26:56;21.40;95.80
16513;DHT22;8369;48.030;11.598;2022-07-29T06:29:23;21.50;95.90
16513;DHT22;8369;48.030;11.598;2022-07-29T06:31:50;21.70;95.20
16513;DHT22;8369;48.030;11.598;2022-07-29T06:34:17;21.80;94.90
16513;DHT22;8369;48.030;11.598;2022-07-29T06:36:44;21.90;94.60
16513;DHT22;8369;48.030;11.598;2022-07-29T06:39:11;22.00;94.40
16513;DHT22;8369;48.030;11.598;2022-07-29T06:41:37;22.10;94.50
16513;DHT22;8369;48.030;11.598;2022-07-29T06:44:05;22.20;94.20
16513;DHT22;8369;48.030;11.598;2022-07-29T06:46:32;22.40;94.10
16513;DHT22;8369;48.030;11.598;2022-07-29T06:49:01;22.50;93.50
16513;DHT22;8369;48.030;11.598;2022-07-29T06:51:28;22.50;93.00
16513;DHT22;8369;48.030;11.598;2022-07-29T06:53:54;22.60;93.20
16513;DHT22;8369;48.030;11.598;2022-07-29T06:56:21;22.70;92.80
16513;DHT22;8369;48.030;11.598;2022-07-29T06:58:47;22.80;93.00
16513;DHT22;8369;48.030;11.598;2022-07-29T07:01:14;22.80;93.00
16513;DHT22;8369;48.030;11.598;2022-07-29T07:03:40;22.90;93.10
16513;DHT22;8369;48.030;11.598;2022-07-29T07:06:08;23.00;91.90
16513;DHT22;8369;48.030;11.598;2022-07-29T07:08:34;23.10;91.80
16513;DHT22;8369;48.030;11.598;2022-07-29T07:11:01;23.20;91.60
16513;DHT22;8369;48.030;11.598;2022-07-29T07:13:27;23.30;91.40
16513;DHT22;8369;48.030;11.598;2022-07-29T07:15:57;23.30;91.30
16513;DHT22;8369;48.030;11.598;2022-07-29T07:18:23;23.40;91.00
16513;DHT22;8369;48.030;11.598;2022-07-29T07:20:49;23.50;90.70
16513;DHT22;8369;48.030;11.598;2022-07-29T07:23:16;23.60;90.00
16513;DHT22;8369;48.030;11.598;2022-07-29T07:25:42;23.70;88.00
16513;DHT22;8369;48.030;11.598;2022-07-29T07:28:08;23.80;88.90
16513;DHT22;8369;48.030;11.598;2022-07-29T07:30:35;23.90;88.50
16513;DHT22;8369;48.030;11.598;2022-07-29T07:33:03;24.00;86.20
16513;DHT22;8369;48.030;11.598;2022-07-29T07:35:30;24.10;85.10
16513;DHT22;8369;48.030;11.598;2022-07-29T07:37:57;24.10;84.40
16513;DHT22;8369;48.030;11.598;2022-07-29T07:40:23;24.10;82.80
16513;DHT22;8369;48.030;11.598;2022-07-29T07:42:50;24.20;84.40
16513;DHT22;8369;48.030;11.598;2022-07-29T07:45:16;24.30;84.70
16513;DHT22;8369;48.030;11.598;2022-07-29T07:47:43;24.30;84.10
16513;DHT22;8369;48.030;11.598;2022-07-29T07:50:11;24.40;82.10
16513;DHT22;8369;48.030;11.598;2022-07-29T07:52:48;24.40;82.40
16513;DHT22;8369;48.030;11.598;2022-07-29T07:55:16;24.60;82.40
16513;DHT22;8369;48.030;11.598;2022-07-29T07:57:43;24.70;81.40
16513;DHT22;8369;48.030;11.598;2022-07-29T08:00:13;24.70;77.90
16513;DHT22;8369;48.030;11.598;2022-07-29T08:02:41;24.70;78.40
16513;DHT22;8369;48.030;11.598;2022-07-29T08:05:12;24.80;78.50
16513;DHT22;8369;48.030;11.598;2022-07-29T08:07:46;24.80;78.50
16513;DHT22;8369;48.030;11.598;2022-07-29T08:10:17;24.90;77.80
16513;DHT22;8369;48.030;11.598;2022-07-29T08:13:04;25.00;77.80
16513;DHT22;8369;48.030;11.598;2022-07-29T08:15:31;25.00;77.30
16513;DHT22;8369;48.030;11.598;2022-07-29T08:17:58;25.10;77.10
16513;DHT22;8369;48.030;11.598;2022-07-29T08:20:25;25.00;77.80
16513;DHT22;8369;48.030;11.598;2022-07-29T08:22:52;25.10;77.40
16513;DHT22;8369;48.030;11.598;2022-07-29T08:25:19;25.10;78.40
16513;DHT22;8369;48.030;11.598;2022-07-29T08:27:47;25.10;79.40
16513;DHT22;8369;48.030;11.598;2022-07-29T08:30:13;25.30;79.00
16513;DHT22;8369;48.030;11.598;2022-07-29T08:32:40;25.40;79.40
16513;DHT22;8369;48.030;11.598;2022-07-29T08:35:07;25.40;79.70
16513;DHT22;8369;48.030;11.598;2022-07-29T08:37:33;25.50;79.00
16513;DHT22;8369;48.030;11.598;2022-07-29T08:40:00;25.60;78.40
16513;DHT22;8369;48.030;11.598;2022-07-29T08:42:27;25.70;77.30
16513;DHT22;8369;48.030;11.598;2022-07-29T08:44:54;25.70;76.80
16513;DHT22;8369;48.030;11.598;2022-07-29T08:47:20;25.70;76.10
16513;DHT22;8369;48.030;11.598;2022-07-29T08:49:47;25.70;74.90
16513;DHT22;8369;48.030;11.598;2022-07-29T08:52:14;25.80;76.20
16513;DHT22;8369;48.030;11.598;2022-07-29T08:54:43;25.80;74.90
16513;DHT22;8369;48.030;11.598;2022-07-29T08:57:14;25.80;73.90
16513;DHT22;8369;48.030;11.598;2022-07-29T08:59:42;25.80;75.30
16513;DHT22;8369;48.030;11.598;2022-07-29T09:02:35;26.00;75.80
16513;DHT22;8369;48.030;11.598;2022-07-29T09:05:05;26.10;75.60
16513;DHT22;8369;48.030;11.598;2022-07-29T09:07:32;26.10;73.60
16513;DHT22;8369;48.030;11.598;2022-07-29T09:09:59;26.00;74.60
16513;DHT22;8369;48.030;11.598;2022-07-29T09:12:26;26.10;75.00
16513;DHT22;8369;48.030;11.598;2022-07-29T09:14:53;26.20;74.90
16513;DHT22;8369;48.030;11.598;2022-07-29T09:17:39;26.20;74.10
16513;DHT22;8369;48.030;11.598;2022-07-29T09:20:11;26.20;75.20
16513;DHT22;8369;48.030;11.598;2022-07-29T09:22:38;26.30;74.60
16513;DHT22;8369;48.030;11.598;2022-07-29T09:25:06;26.30;74.70
16513;DHT22;8369;48.030;11.598;2022-07-29T09:27:33;26.50;75.20
16513;DHT22;8369;48.030;11.598;2022-07-29T09:30:07;26.60;75.50
16513;DHT22;8369;48.030;11.598;2022-07-29T09:32:56;26.70;75.20
16513;DHT22;8369;48.030;11.598;2022-07-29T09:35:25;26.90;74.70
16513;DHT22;8369;48.030;11.598;2022-07-29T09:37:52;26.90;74.10
16513;DHT22;8369;48.030;11.598;2022-07-29T09:40:22;26.90;74.30
16513;DHT22;8369;48.030;11.598;2022-07-29T09:42:56;26.90;73.80
16513;DHT22;8369;48.030;11.598;2022-07-29T09:47:54;26.70;73.30
16513;DHT22;8369;48.030;11.598;2022-07-29T09:50:38;26.70;73.20
16513;DHT22;8369;48.030;11.598;2022-07-29T09:53:05;26.60;73.20
16513;DHT22;8369;48.030;11.598;2022-07-29T09:55:51;26.40;73.20
16513;DHT22;8369;48.030;11.598;2022-07-29T09:58:19;26.30;73.60
16513;DHT22;8369;48.030;11.598;2022-07-29T10:00:48;26.20;74.60
16513;DHT22;8369;48.030;11.598;2022-07-29T10:03:15;26.10;74.10
16513;DHT22;8369;48.030;11.598;2022-07-29T10:05:42;26.10;75.00
16513;DHT22;8369;48.030;11.598;2022-07-29T10:08:11;26.10;75.20
16513;DHT22;8369;48.030;11.598;2022-07-29T10:10:42;26.10;75.20
16513;DHT22;8369;48.030;11.598;2022-07-29T10:13:11;26.10;75.20
16513;DHT22;8369;48.030;11.598;2022-07-29T10:15:40;26.10;76.10
16513;DHT22;8369;48.030;11.598;2022-07-29T10:18:10;26.10;76.50
16513;DHT22;8369;48.030;11.598;2022-07-29T10:20:37;26.10;75.80
16513;DHT22;8369;48.030;11.598;2022-07-29T10:23:04;26.00;75.60
16513;DHT22;8369;48.030;11.598;2022-07-29T10:25:31;26.00;75.80
16513;DHT22;8369;48.030;11.598;2022-07-29T10:27:58;25.80;76.40
16513;DHT22;8369;48.030;11.598;2022-07-29T10:30:25;25.80;77.10
16513;DHT22;8369;48.030;11.598;2022-07-29T10:33:17;25.70;77.30
16513;DHT22;8369;48.030;11.598;2022-07-29T10:38:58;25.50;78.10
16513;DHT22;8369;48.030;11.598;2022-07-29T10:44:22;25.30;80.20
16513;DHT22;8369;48.030;11.598;2022-07-29T10:46:50;25.30;80.50
16513;DHT22;8369;48.030;11.598;2022-07-29T10:49:18;25.30;80.30
16513;DHT22;8369;48.030;11.598;2022-07-29T10:54:37;25.20;80.00
16513;DHT22;8369;48.030;11.598;2022-07-29T10:57:27;25.20;80.00
16513;DHT22;8369;48.030;11.598;2022-07-29T11:07:36;26.10;78.10
16513;DHT22;8369;48.030;11.598;2022-07-29T11:15:15;26.60;74.70
16513;DHT22;8369;48.030;11.598;2022-07-29T11:20:42;26.70;74.60
16513;DHT22;8369;48.030;11.598;2022-07-29T11:23:29;26.80;72.70
16513;DHT22;8369;48.030;11.598;2022-07-29T11:29:01;26.80;72.00
16513;DHT22;8369;48.030;11.598;2022-07-29T11:31:46;26.90;72.60
16513;DHT22;8369;48.030;11.598;2022-07-29T11:34:21;27.00;73.30
16513;DHT22;8369;48.030;11.598;2022-07-29T11:39:40;27.40;70.30
16513;DHT22;8369;48.030;11.598;2022-07-29T11:45:04;27.80;66.60
16513;DHT22;8369;48.030;11.598;2022-07-29T11:47:36;27.80;66.90
16513;DHT22;8369;48.030;11.598;2022-07-29T11:50:04;27.90;67.10
16513;DHT22;8369;48.030;11.598;2022-07-29T11:52:38;28.00;67.10
16513;DHT22;8369;48.030;11.598;2022-07-29T11:55:10;28.10;66.80
16513;DHT22;8369;48.030;11.598;2022-07-29T11:57:36;28.10;65.70
16513;DHT22;8369;48.030;11.598;2022-07-29T12:00:05;28.00;66.30
16513;DHT22;8369;48.030;11.598;2022-07-29T12:02:42;28.00;67.40
16513;DHT22;8369;48.030;11.598;2022-07-29T12:05:09;27.90;68.00
16513;DHT22;8369;48.030;11.598;2022-07-29T12:07:37;28.00;66.80
16513;DHT22;8369;48.030;11.598;2022-07-29T12:10:04;27.90;67.60
16513;DHT22;8369;48.030;11.598;2022-07-29T12:12:30;27.80;67.90
16513;DHT22;8369;48.030;11.598;2022-07-29T12:14:56;27.80;68.00
16513;DHT22;8369;48.030;11.598;2022-07-29T12:17:33;27.70;68.90
16513;DHT22;8369;48.030;11.598;2022-07-29T12:20:01;27.70;69.50
16513;DHT22;8369;48.030;11.598;2022-07-29T12:22:33;27.70;67.70
16513;DHT22;8369;48.030;11.598;2022-07-29T12:25:08;27.70;68.80
16513;DHT22;8369;48.030;11.598;2022-07-29T12:27:36;27.70;69.20
16513;DHT22;8369;48.030;11.598;2022-07-29T12:30:09;27.70;68.80
16513;DHT22;8369;48.030;11.598;2022-07-29T12:32:43;27.70;66.80
16513;DHT22;8369;48.030;11.598;2022-07-29T12:35:10;27.60;66.20
16513;DHT22;8369;48.030;11.598;2022-07-29T12:37:39;27.60;65.10
16513;DHT22;8369;48.030;11.598;2022-07-29T12:40:07;27.50;66.50
16513;DHT22;8369;48.030;11.598;2022-07-29T12:42:34;27.60;65.10
16513;DHT22;8369;48.030;11.598;2022-07-29T12:45:01;27.50;64.50
16513;DHT22;8369;48.030;11.598;2022-07-29T12:47:28;27.70;63.40
16513;DHT22;8369;48.030;11.598;2022-07-29T12:50:09;27.80;62.10
16513;DHT22;8369;48.030;11.598;2022-07-29T12:52:36;28.00;62.50
16513;DHT22;8369;48.030;11.598;2022-07-29T12:55:03;28.10;61.80
16513;DHT22;8369;48.030;11.598;2022-07-29T12:57:31;28.10;61.50
16513;DHT22;8369;48.030;11.598;2022-07-29T13:00:10;28.10;61.60
16513;DHT22;8369;48.030;11.598;2022-07-29T13:02:37;28.00;61.30
16513;DHT22;8369;48.030;11.598;2022-07-29T13:05:09;27.90;61.60
16513;DHT22;8369;48.030;11.598;2022-07-29T13:07:37;27.80;62.70
16513;DHT22;8369;48.030;11.598;2022-07-29T13:10:19;27.70;63.30
16513;DHT22;8369;48.030;11.598;2022-07-29T13:13:07;27.60;64.00
16513;DHT22;8369;48.030;11.598;2022-07-29T13:15:36;27.50;63.10
16513;DHT22;8369;48.030;11.598;2022-07-29T13:18:04;27.40;63.00
16513;DHT22;8369;48.030;11.598;2022-07-29T13:20:31;27.20;64.40
16513;DHT22;8369;48.030;11.598;2022-07-29T13:22:59;27.10;65.30
16513;DHT22;8369;48.030;11.598;2022-07-29T13:25:26;27.00;66.00
16513;DHT22;8369;48.030;11.598;2022-07-29T13:27:53;26.90;65.70
16513;DHT22;8369;48.030;11.598;2022-07-29T13:30:20;26.80;66.30
16513;DHT22;8369;48.030;11.598;2022-07-29T13:32:48;26.80;67.10
16513;DHT22;8369;48.030;11.598;2022-07-29T13:35:15;26.70;67.70
16513;DHT22;8369;48.030;11.598;2022-07-29T13:37:42;26.70;67.90
16513;DHT22;8369;48.030;11.598;2022-07-29T13:40:11;26.60;68.30
16513;DHT22;8369;48.030;11.598;2022-07-29T13:42:38;26.50;68.80
16513;DHT22;8369;48.030;11.598;2022-07-29T13:45:05;26.60;69.40
16513;DHT22;8369;48.030;11.598;2022-07-29T13:47:32;26.50;69.70
16513;DHT22;8369;48.030;11.598;2022-07-29T13:50:03;26.50;69.70
16513;DHT22;8369;48.030;11.598;2022-07-29T13:52:30;26.50;70.10
16513;DHT22;8369;48.030;11.598;2022-07-29T13:54:56;26.50;70.70
16513;DHT22;8369;48.030;11.598;2022-07-29T13:57:22;26.40;71.50
16513;DHT22;8369;48.030;11.598;2022-07-29T13:59:48;26.40;72.00
16513;DHT22;8369;48.030;11.598;2022-07-29T14:02:16;26.50;72.30
16513;DHT22;8369;48.030;11.598;2022-07-29T14:04:43;26.50;72.70
16513;DHT22;8369;48.030;11.598;2022-07-29T14:07:08;26.50;73.50
16513;DHT22;8369;48.030;11.598;2022-07-29T14:09:36;26.50;73.30
16513;DHT22;8369;48.030;11.598;2022-07-29T14:12:02;26.60;73.20
16513;DHT22;8369;48.030;11.598;2022-07-29T14:14:28;26.60;72.70
16513;DHT22;8369;48.030;11.598;2022-07-29T14:16:58;26.70;72.40
16513;DHT22;8369;48.030;11.598;2022-07-29T14:19:24;26.70;72.10
16513;DHT22;8369;48.030;11.598;2022-07-29T14:21:49;26.80;72.40
16513;DHT22;8369;48.030;11.598;2022-07-29T14:24:18;26.90;72.10
16513;DHT22;8369;48.030;11.598;2022-07-29T14:26:44;26.90;72.30
16513;DHT22;8369;48.030;11.598;2022-07-29T14:29:10;26.90;71.80
16513;DHT22;8369;48.030;11.598;2022-07-29T14:31:35;27.00;71.10
16513;DHT22;8369;48.030;11.598;2022-07-29T14:34:01;27.00;71.50
16513;DHT22;8369;48.030;11.598;2022-07-29T14:36:27;27.00;71.50
16513;DHT22;8369;48.030;11.598;2022-07-29T14:38:53;27.10;71.50
16513;DHT22;8369;48.030;11.598;2022-07-29T14:41:19;27.00;71.70
16513;DHT22;8369;48.030;11.598;2022-07-29T14:43:47;27.00;71.80
16513;DHT22;8369;48.030;11.598;2022-07-29T14:46:13;27.00;72.10
16513;DHT22;8369;48.030;11.598;2022-07-29T14:48:39;26.90;72.90
16513;DHT22;8369;48.030;11.598;2022-07-29T14:51:05;27.00;73.00
16513;DHT22;8369;48.030;11.598;2022-07-29T14:53:31;27.00;72.30
16513;DHT22;8369;48.030;11.598;2022-07-29T14:55:58;27.00;72.00
16513;DHT22;8369;48.030;11.598;2022-07-29T14:58:24;27.00;72.30
16513;DHT22;8369;48.030;11.598;2022-07-29T15:00:50;26.90;72.60
16513;DHT22;8369;48.030;11.598;2022-07-29T15:03:16;26.90;73.20
16513;DHT22;8369;48.030;11.598;2022-07-29T15:05:42;26.80;73.60
16513;DHT22;8369;48.030;11.598;2022-07-29T15:08:11;26.80;73.20
16513;DHT22;8369;48.030;11.598;2022-07-29T15:10:37;26.80;73.30
16513;DHT22;8369;48.030;11.598;2022-07-29T15:13:03;26.70;73.50
16513;DHT22;8369;48.030;11.598;2022-07-29T15:15:29;26.70;73.80
16513;DHT22;8369;48.030;11.598;2022-07-29T15:17:55;26.80;73.60
16513;DHT22;8369;48.030;11.598;2022-07-29T15:20:21;26.90;73.00
16513;DHT22;8369;48.030;11.598;2022-07-29T15:22:49;26.90;72.30
16513;DHT22;8369;48.030;11.598;2022-07-29T15:25:15;26.80;73.00
16513;DHT22;8369;48.030;11.598;2022-07-29T15:27:41;26.80;73.00
16513;DHT22;8369;48.030;11.598;2022-07-29T15:30:07;26.70;73.50
16513;DHT22;8369;48.030;11.598;2022-07-29T15:32:33;26.60;73.90
16513;DHT22;8369;48.030;11.598;2022-07-29T15:34:59;26.50;74.60
16513;DHT22;8369;48.030;11.598;2022-07-29T15:37:25;26.40;74.70
16513;DHT22;8369;48.030;11.598;2022-07-29T15:39:50;26.30;74.90
16513;DHT22;8369;48.030;11.598;2022-07-29T15:42:16;26.20;74.70
16513;DHT22;8369;48.030;11.598;2022-07-29T15:44:42;26.10;75.30
16513;DHT22;8369;48.030;11.598;2022-07-29T15:47:08;26.00;75.90
16513;DHT22;8369;48.030;11.598;2022-07-29T15:49:39;25.90;76.10
16513;DHT22;8369;48.030;11.598;2022-07-29T15:52:07;25.90;76.10
16513;DHT22;8369;48.030;11.598;2022-07-29T15:54:35;25.80;76.40
16513;DHT22;8369;48.030;11.598;2022-07-29T15:57:02;25.80;76.50
16513;DHT22;8369;48.030;11.598;2022-07-29T15:59:28;25.70;77.90
16513;DHT22;8369;48.030;11.598;2022-07-29T16:01:57;25.60;78.20
16513;DHT22;8369;48.030;11.598;2022-07-29T16:04:23;25.50;78.70
16513;DHT22;8369;48.030;11.598;2022-07-29T16:06:49;25.50;79.30
16513;DHT22;8369;48.030;11.598;2022-07-29T16:09:16;25.40;79.90
16513;DHT22;8369;48.030;11.598;2022-07-29T16:11:43;25.40;80.60
16513;DHT22;8369;48.030;11.598;2022-07-29T16:14:11;25.30;81.10
16513;DHT22;8369;48.030;11.598;2022-07-29T16:16:37;25.20;81.40
16513;DHT22;8369;48.030;11.598;2022-07-29T16:19:05;25.20;81.90
16513;DHT22;8369;48.030;11.598;2022-07-29T16:21:31;25.10;83.00
16513;DHT22;8369;48.030;11.598;2022-07-29T16:23:58;24.90;84.40
16513;DHT22;8369;48.030;11.598;2022-07-29T16:26:25;24.80;85.00